createdAt,value
2019-05-11T00:00:05.432Z,80.50
2019-05-11T00:02:38.258Z,80.02
2019-05-11T00:05:09.520Z,80.24
2019-05-11T00:07:43.513Z,80.25
2019-05-11T00:10:14.002Z,79.58
2019-05-11T00:12:47.354Z,79.50
2019-05-11T00:15:18.696Z,79.29
2019-05-11T00:17:50.811Z,80.85
2019-05-11T00:20:22.040Z,82.12
2019-05-11T00:22:53.736Z,82.28
2019-05-11T00:25:25.279Z,81.92
2019-05-11T00:27:56.784Z,81.61
2019-05-11T00:30:28.133Z,81.41
2019-05-11T00:32:59.398Z,83.39
2019-05-11T00:35:31.018Z,83.93
2019-05-11T00:38:02.362Z,83.62
2019-05-11T00:40:33.699Z,83.07
2019-05-11T00:43:05.055Z,82.42
2019-05-11T00:45:36.640Z,82.50
2019-05-11T00:48:07.938Z,82.06
2019-05-11T00:50:40.782Z,82.25
2019-05-11T00:53:13.599Z,82.71
2019-05-11T00:55:44.996Z,82.61
2019-05-11T00:58:16.343Z,82.69
2019-05-11T01:00:47.788Z,82.44
2019-05-11T01:03:19.191Z,82.55
2019-05-11T01:05:50.973Z,82.62
2019-05-11T01:08:22.313Z,82.72
2019-05-11T01:10:54.065Z,82.70
2019-05-11T01:13:25.280Z,82.30
2019-05-11T01:15:58.397Z,82.18
2019-05-11T01:18:32.584Z,82.12
2019-05-11T01:21:04.209Z,82.54
2019-05-11T01:23:35.895Z,82.72
2019-05-11T01:26:07.268Z,82.54
2019-05-11T01:28:38.519Z,82.06
2019-05-11T01:31:09.901Z,82.16
2019-05-11T01:33:41.663Z,83.03
2019-05-11T01:36:13.436Z,82.82
2019-05-11T01:38:44.812Z,82.28
2019-05-11T01:41:16.238Z,82.30
2019-05-11T01:43:50.220Z,82.42
2019-05-11T01:46:21.967Z,82.54
2019-05-11T01:48:53.448Z,84.38
2019-05-11T01:51:24.675Z,84.55
2019-05-11T01:53:55.917Z,84.04
2019-05-11T01:56:27.266Z,84.20
2019-05-11T01:58:58.854Z,83.60
2019-05-11T02:01:30.929Z,83.60
2019-05-11T02:04:02.885Z,83.30
2019-05-11T02:06:34.150Z,82.99
2019-05-11T02:09:06.816Z,85.81
2019-05-11T02:11:38.090Z,85.59
2019-05-11T02:14:09.892Z,85.22
2019-05-11T02:16:41.177Z,84.74
2019-05-11T02:19:12.843Z,84.44
2019-05-11T02:21:44.552Z,84.12
2019-05-11T02:24:16.392Z,83.93
2019-05-11T02:26:47.806Z,83.69
2019-05-11T02:29:19.039Z,83.42
2019-05-11T02:31:50.260Z,83.63
2019-05-11T02:34:21.569Z,83.35
2019-05-11T02:36:53.317Z,83.12
2019-05-11T02:39:24.809Z,83.03
2019-05-11T02:41:56.070Z,82.87
2019-05-11T02:44:27.493Z,82.41
2019-05-11T02:46:59.042Z,82.12
2019-05-11T02:49:30.237Z,82.00
2019-05-11T02:52:01.871Z,82.47
2019-05-11T02:54:33.221Z,83.23
2019-05-11T02:57:04.439Z,84.44
2019-05-11T02:59:35.945Z,85.88
2019-05-11T03:02:07.180Z,86.18
2019-05-11T03:04:38.630Z,85.64
2019-05-11T03:07:10.046Z,85.18
2019-05-11T03:09:42.448Z,84.83
2019-05-11T03:12:13.763Z,84.06
2019-05-11T03:14:45.592Z,83.76
2019-05-11T03:17:20.758Z,83.42
2019-05-11T03:19:51.971Z,83.39
2019-05-11T03:22:23.190Z,83.06
2019-05-11T03:24:56.041Z,83.22
2019-05-11T03:27:27.497Z,83.88
2019-05-11T03:30:01.034Z,85.06
2019-05-11T03:32:32.616Z,85.90
2019-05-11T03:35:04.021Z,85.65
2019-05-11T03:37:35.366Z,85.97
2019-05-11T03:40:06.942Z,85.98
2019-05-11T03:42:38.364Z,85.91
2019-05-11T03:45:09.918Z,85.54
2019-05-11T03:47:43.974Z,85.03
2019-05-11T03:50:14.833Z,84.65
2019-05-11T03:52:46.054Z,84.74
2019-05-11T03:55:17.398Z,84.49
2019-05-11T03:57:48.763Z,84.34
2019-05-11T04:00:20.153Z,84.15
2019-05-11T04:02:52.967Z,84.15
2019-05-11T04:05:24.257Z,83.90
2019-05-11T04:07:55.805Z,83.87
2019-05-11T04:10:27.281Z,84.08
2019-05-11T04:12:58.603Z,84.54
2019-05-11T04:15:30.810Z,84.32
2019-05-11T04:18:02.085Z,84.09
2019-05-11T04:20:33.577Z,83.71
2019-05-11T04:23:04.807Z,83.41
2019-05-11T04:25:36.147Z,83.33
2019-05-11T04:28:09.579Z,83.10
2019-05-11T04:30:41.111Z,83.48
2019-05-11T04:33:12.357Z,83.87
2019-05-11T04:35:43.878Z,84.03
2019-05-11T04:38:15.108Z,84.36
2019-05-11T04:40:46.456Z,84.71
2019-05-11T04:43:17.846Z,84.71
2019-05-11T04:45:49.472Z,84.50
2019-05-11T04:48:20.785Z,84.42
2019-05-11T04:50:53.610Z,84.19
2019-05-11T04:53:24.828Z,83.91
2019-05-11T04:55:58.275Z,84.08
2019-05-11T04:58:32.046Z,84.26
2019-05-11T05:01:03.293Z,84.29
2019-05-11T05:03:40.982Z,84.05
2019-05-11T05:06:22.122Z,83.76
2019-05-11T05:08:40.913Z,83.67
2019-05-11T05:11:12.343Z,83.63
2019-05-11T05:13:43.611Z,83.47
2019-05-11T05:16:16.565Z,83.93
2019-05-11T05:18:47.878Z,84.30
2019-05-11T05:21:19.476Z,84.39
2019-05-11T05:23:50.962Z,84.44
2019-05-11T05:26:22.176Z,84.43
2019-05-11T05:28:53.803Z,84.14
2019-05-11T05:31:24.985Z,83.65
2019-05-11T05:33:56.444Z,83.95
2019-05-11T05:36:27.792Z,83.90
2019-05-11T05:38:59.036Z,83.83
2019-05-11T05:41:30.512Z,83.46
2019-05-11T05:44:03.318Z,82.98
2019-05-11T05:46:35.102Z,82.67
2019-05-11T05:49:06.340Z,82.35
2019-05-11T05:51:37.773Z,82.12
2019-05-11T05:54:09.323Z,81.86
2019-05-11T05:56:41.341Z,81.65
2019-05-11T05:59:12.589Z,81.36
2019-05-11T06:01:43.805Z,81.63
2019-05-11T06:04:15.271Z,81.22
2019-05-11T06:06:46.807Z,81.08
2019-05-11T06:09:18.303Z,81.00
2019-05-11T06:11:49.639Z,80.77
2019-05-11T06:14:20.933Z,80.91
2019-05-11T06:16:52.788Z,81.12
2019-05-11T06:19:24.845Z,81.05
2019-05-11T06:21:56.092Z,81.23
2019-05-11T06:24:27.690Z,81.04
2019-05-11T06:26:59.226Z,80.99
2019-05-11T06:29:30.780Z,80.68
2019-05-11T06:32:02.295Z,80.33
2019-05-11T06:34:34.132Z,80.38
2019-05-11T06:37:05.588Z,80.06
2019-05-11T06:39:36.848Z,80.01
2019-05-11T06:42:08.148Z,80.23
2019-05-11T06:44:39.921Z,80.77
2019-05-11T06:47:11.176Z,79.77
2019-05-11T06:49:42.868Z,78.51
2019-05-11T06:52:14.832Z,78.03
2019-05-11T06:54:46.163Z,77.79
2019-05-11T06:57:17.453Z,77.15
2019-05-11T06:59:48.676Z,76.70
2019-05-11T07:02:19.904Z,74.64
2019-05-11T07:04:52.963Z,72.20
2019-05-11T07:07:24.318Z,70.67
2019-05-11T07:09:55.814Z,70.47
2019-05-11T07:12:27.890Z,70.62
2019-05-11T07:14:59.664Z,69.72
2019-05-11T07:17:31.077Z,68.25
2019-05-11T07:20:02.391Z,66.91
2019-05-11T07:22:34.082Z,65.49
2019-05-11T07:25:05.750Z,64.71
2019-05-11T07:27:37.237Z,66.28
2019-05-11T07:30:08.981Z,62.87
2019-05-11T07:32:40.257Z,63.12
2019-05-11T07:35:12.232Z,62.70
2019-05-11T07:37:43.954Z,62.25
2019-05-11T07:40:15.494Z,63.01
2019-05-11T07:42:48.540Z,61.43
2019-05-11T07:45:20.238Z,63.01
2019-05-11T07:47:51.961Z,62.35
2019-05-11T07:50:23.323Z,62.79
2019-05-11T07:52:54.971Z,62.84
2019-05-11T07:55:28.205Z,63.45
2019-05-11T07:57:59.202Z,64.52
2019-05-11T08:00:30.787Z,63.41
2019-05-11T08:03:02.017Z,63.51
2019-05-11T08:05:33.544Z,63.23
2019-05-11T08:08:05.033Z,62.34
2019-05-11T08:10:39.004Z,61.53
2019-05-11T08:13:10.774Z,58.56
2019-05-11T08:15:42.031Z,57.43
2019-05-11T08:18:13.394Z,58.13
2019-05-11T08:20:45.008Z,58.34
2019-05-11T08:23:18.020Z,59.66
2019-05-11T08:25:49.623Z,58.99
2019-05-11T08:28:21.530Z,58.63
2019-05-11T08:30:52.746Z,58.92
2019-05-11T08:33:29.347Z,58.27
2019-05-11T08:36:18.495Z,58.02
2019-05-11T08:38:50.194Z,58.52
2019-05-11T08:41:21.494Z,58.03
2019-05-11T08:47:23.394Z,59.83
2019-05-11T08:49:54.646Z,60.35
2019-05-11T08:52:28.059Z,58.65
2019-05-11T08:55:02.062Z,59.27
2019-05-11T08:57:33.322Z,59.62
2019-05-11T09:00:04.770Z,59.53
2019-05-11T09:02:38.186Z,56.94
2019-05-11T09:05:09.273Z,57.59
2019-05-11T09:07:40.477Z,58.08
2019-05-11T09:10:11.877Z,59.00
2019-05-11T09:12:43.327Z,59.67
2019-05-11T09:15:31.589Z,59.69
2019-05-11T09:17:48.859Z,59.53
2019-05-11T09:20:22.229Z,59.28
2019-05-11T09:22:53.486Z,59.68
2019-05-11T09:25:30.304Z,58.75
2019-05-11T09:28:01.997Z,59.60
2019-05-11T09:30:44.872Z,57.72
2019-05-11T09:33:18.514Z,57.75
2019-05-11T09:35:53.081Z,57.73
2019-05-11T09:38:22.019Z,57.51
2019-05-11T09:40:53.856Z,57.42
2019-05-11T09:43:25.216Z,56.50
2019-05-11T09:49:12.730Z,55.49
2019-05-11T09:51:44.749Z,56.67
2019-05-11T09:54:18.284Z,57.36
2019-05-11T09:56:51.528Z,57.49
2019-05-11T09:59:22.906Z,58.06
2019-05-11T10:01:54.508Z,58.15
2019-05-11T10:04:25.728Z,58.09
2019-05-11T10:06:58.511Z,57.54
2019-05-11T10:09:31.258Z,55.84
2019-05-11T10:12:02.733Z,55.79
2019-05-11T10:14:34.745Z,55.50
2019-05-11T10:17:07.983Z,55.24
2019-05-11T10:19:39.657Z,56.61
2019-05-11T10:22:10.964Z,57.06
2019-05-11T10:24:44.359Z,57.63
2019-05-11T10:27:15.785Z,57.96
2019-05-11T10:29:48.368Z,58.39
2019-05-11T10:32:20.238Z,59.03
2019-05-11T10:34:51.693Z,59.14
2019-05-11T10:37:23.090Z,60.22
2019-05-11T10:39:54.320Z,59.75
2019-05-11T10:42:25.560Z,59.69
2019-05-11T10:44:58.312Z,59.12
2019-05-11T10:47:30.492Z,57.62
2019-05-11T10:50:02.304Z,58.91
2019-05-11T10:52:33.613Z,59.37
2019-05-11T10:55:04.846Z,59.01
2019-05-11T10:57:38.694Z,57.38
2019-05-11T11:00:11.300Z,57.34
2019-05-11T11:02:42.834Z,57.09
2019-05-11T11:05:14.583Z,58.56
2019-05-11T11:07:48.378Z,57.82
2019-05-11T11:10:19.963Z,56.34
2019-05-11T11:12:51.163Z,55.86
2019-05-11T11:15:23.205Z,54.67
2019-05-11T11:17:54.529Z,54.48
2019-05-11T11:20:28.041Z,55.28
2019-05-11T11:22:59.136Z,54.48
2019-05-11T11:25:30.895Z,54.72
2019-05-11T11:28:02.495Z,55.20
2019-05-11T11:30:34.321Z,55.67
2019-05-11T11:33:07.814Z,53.84
2019-05-11T11:35:39.426Z,54.94
2019-05-11T11:38:10.826Z,55.07
2019-05-11T11:40:42.900Z,55.53
2019-05-11T11:43:14.504Z,54.24
2019-05-11T11:45:48.281Z,54.19
2019-05-11T11:48:19.128Z,54.51
2019-05-11T11:50:50.477Z,55.37
2019-05-11T11:53:21.890Z,55.16
2019-05-11T11:55:53.372Z,55.88
2019-05-11T11:58:24.603Z,55.57
2019-05-11T12:00:55.867Z,55.50
2019-05-11T12:03:27.799Z,53.70
2019-05-11T12:05:59.497Z,54.49
2019-05-11T12:08:32.694Z,54.13
2019-05-11T12:11:03.979Z,53.39
2019-05-11T12:13:35.272Z,54.68
2019-05-11T12:16:07.759Z,53.34
2019-05-11T12:18:41.936Z,53.20
2019-05-11T12:21:13.334Z,54.64
2019-05-11T12:23:44.546Z,54.90
2019-05-11T12:26:17.723Z,53.94
2019-05-11T12:28:49.270Z,54.47
2019-05-11T12:31:20.780Z,54.04
2019-05-11T12:33:52.235Z,53.20
2019-05-11T12:36:23.824Z,53.34
2019-05-11T12:38:55.119Z,52.51
2019-05-11T12:41:28.012Z,51.69
2019-05-11T12:43:59.961Z,51.48
2019-05-11T12:46:31.849Z,51.95
2019-05-11T12:49:03.297Z,51.96
2019-05-11T12:51:34.569Z,52.12
2019-05-11T12:54:08.083Z,53.75
2019-05-11T12:56:39.457Z,54.06
2019-05-11T12:59:10.850Z,54.79
2019-05-11T13:01:42.128Z,54.73
2019-05-11T13:04:13.409Z,54.87
2019-05-11T13:06:47.985Z,52.99
2019-05-11T13:09:19.379Z,53.35
2019-05-11T13:11:51.464Z,53.84
2019-05-11T13:14:22.701Z,53.56
2019-05-11T13:16:54.126Z,53.28
2019-05-11T13:19:27.983Z,53.12
2019-05-11T13:21:59.101Z,52.83
2019-05-11T13:24:30.558Z,51.89
2019-05-11T13:27:02.349Z,52.17
2019-05-11T13:29:33.562Z,52.77
2019-05-11T13:32:05.290Z,53.20
2019-05-11T13:34:38.716Z,53.97
2019-05-11T13:37:09.985Z,53.31
2019-05-11T13:39:42.208Z,53.44
2019-05-11T13:42:13.865Z,52.74
2019-05-11T13:44:47.709Z,53.09
2019-05-11T13:47:18.425Z,54.33
2019-05-11T13:49:50.017Z,54.09
2019-05-11T13:52:21.916Z,52.72
2019-05-11T13:54:53.612Z,53.87
2019-05-11T13:57:25.142Z,53.91
2019-05-11T13:59:57.953Z,54.56
2019-05-11T14:02:30.708Z,54.88
2019-05-11T14:05:02.055Z,54.91
2019-05-11T14:07:33.681Z,54.26
2019-05-11T14:10:07.869Z,54.67
2019-05-11T14:12:38.810Z,55.29
2019-05-11T14:15:10.569Z,53.67
2019-05-11T14:17:42.081Z,54.29
2019-05-11T14:20:14.169Z,54.19
2019-05-11T14:22:47.803Z,53.61
2019-05-11T14:25:18.985Z,52.49
2019-05-11T14:27:50.234Z,52.67
2019-05-11T14:30:21.757Z,54.39
2019-05-11T14:32:53.098Z,54.10
2019-05-11T14:35:24.383Z,54.09
2019-05-11T14:37:55.607Z,53.73
2019-05-11T14:43:33.360Z,53.96
2019-05-11T14:49:41.576Z,53.76
2019-05-11T14:52:13.040Z,53.21
2019-05-11T14:54:44.806Z,52.38
2019-05-11T14:57:18.560Z,53.42
2019-05-11T14:59:49.761Z,53.19
2019-05-11T15:02:38.853Z,53.03
2019-05-11T15:05:10.482Z,53.13
2019-05-11T15:07:41.715Z,52.49
2019-05-11T15:10:13.204Z,52.60
2019-05-11T15:12:44.678Z,52.67
2019-05-11T15:15:18.696Z,53.09
2019-05-11T15:17:50.310Z,53.08
2019-05-11T15:20:21.797Z,53.53
2019-05-11T15:22:53.028Z,54.67
2019-05-11T15:25:24.280Z,55.09
2019-05-11T15:27:58.471Z,55.62
2019-05-11T15:30:32.654Z,55.43
2019-05-11T15:33:07.750Z,54.06
2019-05-11T15:35:42.760Z,54.63
2019-05-11T15:38:17.898Z,54.54
2019-05-11T15:40:51.062Z,56.05
2019-05-11T15:43:23.091Z,55.99
2019-05-11T15:45:57.894Z,56.59
2019-05-11T15:48:34.110Z,55.93
2019-05-11T15:51:09.334Z,55.95
2019-05-11T15:53:43.845Z,56.24
2019-05-11T15:56:19.097Z,57.31
2019-05-11T15:58:53.829Z,58.22
2019-05-11T16:01:28.874Z,59.04
2019-05-11T16:04:03.265Z,59.62
2019-05-11T16:06:35.897Z,60.72
2019-05-11T16:09:10.330Z,60.71
2019-05-11T16:11:47.733Z,61.35
2019-05-11T16:14:19.588Z,62.00
2019-05-11T16:16:53.035Z,63.40
2019-05-11T16:19:25.148Z,65.61
2019-05-11T16:21:59.548Z,66.84
2019-05-11T16:24:32.714Z,67.37
2019-05-11T16:27:05.064Z,66.76
2019-05-11T16:29:38.540Z,66.66
2019-05-11T16:32:11.254Z,67.76
2019-05-11T16:34:44.073Z,69.47
2019-05-11T16:37:18.403Z,68.23
2019-05-11T16:39:51.613Z,68.97
2019-05-11T16:42:23.785Z,70.45
2019-05-11T16:44:57.806Z,72.17
2019-05-11T16:47:29.398Z,73.03
2019-05-11T16:50:02.749Z,74.72
2019-05-11T16:52:35.377Z,74.35
2019-05-11T16:55:07.993Z,74.35
2019-05-11T16:57:42.980Z,77.33
2019-05-11T17:00:14.580Z,77.36
2019-05-11T17:02:49.093Z,78.46
2019-05-11T17:05:27.052Z,79.29
2019-05-11T17:07:58.738Z,80.42
2019-05-11T17:10:32.444Z,81.60
2019-05-11T17:13:08.640Z,81.47
2019-05-11T17:15:41.639Z,81.63
2019-05-11T17:18:15.161Z,82.69
2019-05-11T17:20:47.616Z,81.10
2019-05-11T17:23:23.320Z,82.32
2019-05-11T17:25:57.960Z,83.08
2019-05-11T17:28:30.680Z,83.67
2019-05-11T17:31:03.463Z,84.01
2019-05-11T17:33:35.593Z,82.75
2019-05-11T17:36:10.186Z,83.10
2019-05-11T17:38:43.161Z,83.77
2019-05-11T17:41:15.480Z,83.04
2019-05-11T17:43:48.055Z,83.62
2019-05-11T17:46:19.438Z,84.57
2019-05-11T17:48:52.778Z,84.47
2019-05-11T17:51:28.577Z,83.94
2019-05-11T17:54:02.833Z,84.85
2019-05-11T17:56:42.063Z,85.00
2019-05-11T17:59:23.612Z,84.90
2019-05-11T18:01:57.971Z,85.79
2019-05-11T18:04:30.691Z,85.10
2019-05-11T18:07:04.957Z,86.08
2019-05-11T18:09:39.261Z,86.35
2019-05-11T18:12:10.872Z,86.50
2019-05-11T18:14:43.629Z,85.86
2019-05-11T18:17:18.064Z,86.38
2019-05-11T18:19:53.330Z,86.01
2019-05-11T18:22:25.346Z,85.08
2019-05-11T18:24:58.643Z,86.17
2019-05-11T18:27:32.217Z,86.09
2019-05-11T18:30:08.618Z,86.41
2019-05-11T18:32:41.114Z,85.73
2019-05-11T18:35:12.988Z,85.51
2019-05-11T18:37:47.747Z,84.82
2019-05-11T18:40:20.853Z,83.98
2019-05-11T18:42:52.950Z,84.33
2019-05-11T18:45:28.579Z,84.00
2019-05-11T18:48:03.169Z,84.34
2019-05-11T18:50:34.850Z,84.48
2019-05-11T18:53:09.423Z,84.15
2019-05-11T18:55:43.546Z,83.23
2019-05-11T18:58:18.398Z,83.47
2019-05-11T19:00:49.699Z,83.91
2019-05-11T19:03:23.028Z,83.44
2019-05-11T19:05:57.625Z,83.70
2019-05-11T19:08:32.077Z,84.40
2019-05-11T19:11:11.785Z,84.35
2019-05-11T19:13:43.839Z,84.87
2019-05-11T19:16:18.742Z,82.20
2019-05-11T19:18:52.935Z,82.04
2019-05-11T19:21:25.433Z,82.04
2019-05-11T19:23:58.847Z,82.84
2019-05-11T19:26:30.311Z,83.58
2019-05-11T19:29:02.104Z,84.82
2019-05-11T19:31:38.435Z,84.50
2019-05-11T19:34:11.132Z,84.68
2019-05-11T19:36:44.129Z,84.88
2019-05-11T19:39:19.183Z,84.40
2019-05-11T19:41:50.593Z,83.37
2019-05-11T19:44:23.200Z,83.98
2019-05-11T19:46:58.123Z,84.69
2019-05-11T19:49:31.017Z,84.69
2019-05-11T19:52:05.417Z,84.70
2019-05-11T19:54:38.413Z,84.18
2019-05-11T19:57:09.747Z,84.30
2019-05-11T19:59:42.350Z,84.59
2019-05-11T20:02:17.873Z,84.44
2019-05-11T20:04:51.723Z,84.68
2019-05-11T20:07:23.611Z,84.22
2019-05-11T20:10:03.008Z,84.20
2019-05-11T20:12:38.192Z,83.58
2019-05-11T20:15:10.393Z,83.05
2019-05-11T20:17:43.549Z,82.18
2019-05-11T20:20:18.882Z,81.92
2019-05-11T20:22:52.705Z,82.35
2019-05-11T20:25:24.190Z,82.52
2019-05-11T20:27:55.429Z,82.64
2019-05-11T20:30:26.623Z,82.73
2019-05-11T20:32:59.491Z,82.77
2019-05-11T20:35:32.681Z,82.77
2019-05-11T20:38:08.470Z,83.07
2019-05-11T20:40:40.386Z,83.72
2019-05-11T20:43:12.703Z,83.33
2019-05-11T20:45:44.365Z,82.92
2019-05-11T20:48:19.291Z,83.31
2019-05-11T20:50:51.441Z,82.93
2019-05-11T20:53:28.665Z,83.13
2019-05-11T20:56:01.894Z,84.16
2019-05-11T20:58:53.485Z,84.75
2019-05-11T21:01:33.191Z,84.48
2019-05-11T21:04:08.497Z,84.17
2019-05-11T21:06:43.215Z,83.73
2019-05-11T21:09:18.460Z,83.43
2019-05-11T21:11:58.879Z,83.69
2019-05-11T21:14:34.263Z,83.66
2019-05-11T21:17:08.889Z,84.02
2019-05-11T21:19:42.680Z,83.04
2019-05-11T21:22:13.698Z,82.21
2019-05-11T21:24:49.584Z,82.12
2019-05-11T21:27:25.276Z,82.07
2019-05-11T21:29:59.164Z,82.09
2019-05-11T21:32:31.835Z,84.18
2019-05-11T21:35:12.309Z,84.76
2019-05-11T21:37:49.844Z,85.79
2019-05-11T21:40:31.370Z,85.63
2019-05-11T21:43:03.654Z,85.19
2019-05-11T21:45:40.522Z,84.89
2019-05-11T21:48:15.268Z,84.51
2019-05-11T21:50:53.009Z,84.61
2019-05-11T21:53:35.405Z,84.65
2019-05-11T21:56:19.974Z,84.91
2019-05-11T21:58:55.772Z,84.89
2019-05-11T22:01:31.733Z,84.66
2019-05-11T22:04:02.960Z,84.46
2019-05-11T22:06:38.992Z,84.06
2019-05-11T22:09:19.079Z,84.39
2019-05-11T22:12:01.467Z,84.28
2019-05-11T22:14:34.634Z,85.78
2019-05-11T22:17:07.705Z,86.26
2019-05-11T22:19:40.778Z,85.72
2019-05-11T22:22:24.944Z,84.85
2019-05-11T22:24:52.614Z,85.28
2019-05-11T22:27:27.823Z,86.06
2019-05-11T22:30:00.342Z,85.37
2019-05-11T22:32:32.904Z,85.35
2019-05-11T22:35:08.581Z,85.44
2019-05-11T22:37:39.804Z,86.25
2019-05-11T22:40:12.424Z,86.30
2019-05-11T22:42:45.039Z,86.34
2019-05-11T22:45:18.740Z,85.76
2019-05-11T22:47:51.922Z,85.43
2019-05-11T22:50:25.056Z,85.08
2019-05-11T22:52:57.747Z,84.33
2019-05-11T22:55:29.818Z,84.22
2019-05-11T22:58:03.130Z,85.11
2019-05-11T23:00:41.359Z,85.31
2019-05-11T23:03:18.900Z,85.83
2019-05-11T23:05:51.605Z,86.46
2019-05-11T23:08:23.214Z,86.39
2019-05-11T23:10:58.105Z,86.41
2019-05-11T23:13:32.625Z,86.06
2019-05-11T23:16:04.155Z,85.66
2019-05-11T23:18:38.957Z,85.62
2019-05-11T23:21:12.135Z,85.37
2019-05-11T23:23:44.107Z,85.43
2019-05-11T23:26:17.893Z,85.45
2019-05-11T23:28:49.480Z,85.53
2019-05-11T23:31:24.255Z,86.10
2019-05-11T23:33:59.180Z,85.48
2019-05-11T23:36:34.649Z,85.30
2019-05-11T23:39:09.184Z,87.43
2019-05-11T23:41:40.799Z,87.99
2019-05-11T23:44:14.283Z,87.85
2019-05-11T23:46:47.929Z,87.31
2019-05-11T23:49:21.284Z,86.79
2019-05-11T23:51:54.090Z,86.89
2019-05-11T23:54:28.483Z,86.97
2019-05-11T23:57:00.055Z,86.60
2019-05-11T23:59:32.442Z,87.05
